sensor_id;sensor_type;location;lat;lon;timestamp;P1;durP1;ratioP1;P2;durP2;ratioP2
46815;SDS011;32787;53.316;8.670;2023-09-18T00:00:45;14.10;;;10.80;;
46815;SDS011;32787;53.316;8.670;2023-09-18T00:03:14;16.23;;;11.43;;
46815;SDS011;32787;53.316;8.670;2023-09-18T00:05:42;16.58;;;11.38;;
46815;SDS011;32787;53.316;8.670;2023-09-18T00:08:08;15.32;;;11.60;;
46815;SDS011;32787;53.316;8.670;2023-09-18T00:10:34;18.25;;;12.07;;
46815;SDS011;32787;53.316;8.670;2023-09-18T00:13:00;16.38;;;12.65;;
46815;SDS011;32787;53.316;8.670;2023-09-18T00:15:26;20.92;;;13.23;;
46815;SDS011;32787;53.316;8.670;2023-09-18T00:17:51;16.95;;;13.13;;
46815;SDS011;32787;53.316;8.670;2023-09-18T00:20:17;20.23;;;14.38;;
46815;SDS011;32787;53.316;8.670;2023-09-18T00:22:43;20.42;;;13.55;;
46815;SDS011;32787;53.316;8.670;2023-09-18T00:25:09;15.75;;;12.13;;
46815;SDS011;32787;53.316;8.670;2023-09-18T00:27:35;16.45;;;13.07;;
46815;SDS011;32787;53.316;8.670;2023-09-18T00:30:04;16.30;;;12.43;;
46815;SDS011;32787;53.316;8.670;2023-09-18T00:32:31;18.02;;;13.55;;
46815;SDS011;32787;53.316;8.670;2023-09-18T00:34:56;18.75;;;14.10;;
46815;SDS011;32787;53.316;8.670;2023-09-18T00:37:22;19.05;;;13.43;;
46815;SDS011;32787;53.316;8.670;2023-09-18T00:39:49;17.17;;;13.23;;
46815;SDS011;32787;53.316;8.670;2023-09-18T00:42:14;20.85;;;13.52;;
46815;SDS011;32787;53.316;8.670;2023-09-18T00:44:42;18.13;;;13.77;;
46815;SDS011;32787;53.316;8.670;2023-09-18T00:47:08;18.83;;;13.57;;
46815;SDS011;32787;53.316;8.670;2023-09-18T00:49:35;17.48;;;12.77;;
46815;SDS011;32787;53.316;8.670;2023-09-18T00:52:03;18.05;;;13.13;;
46815;SDS011;32787;53.316;8.670;2023-09-18T00:54:29;19.83;;;13.90;;
46815;SDS011;32787;53.316;8.670;2023-09-18T00:56:56;19.52;;;13.70;;
46815;SDS011;32787;53.316;8.670;2023-09-18T00:59:22;19.38;;;13.63;;
46815;SDS011;32787;53.316;8.670;2023-09-18T01:01:48;20.48;;;13.73;;
46815;SDS011;32787;53.316;8.670;2023-09-18T01:04:16;19.92;;;13.80;;
46815;SDS011;32787;53.316;8.670;2023-09-18T01:06:42;17.95;;;13.38;;
46815;SDS011;32787;53.316;8.670;2023-09-18T01:09:07;17.58;;;13.65;;
46815;SDS011;32787;53.316;8.670;2023-09-18T01:16:56;17.90;;;12.40;;
46815;SDS011;32787;53.316;8.670;2023-09-18T01:22:05;17.17;;;12.20;;
46815;SDS011;32787;53.316;8.670;2023-09-18T01:24:35;16.73;;;12.15;;
46815;SDS011;32787;53.316;8.670;2023-09-18T01:27:02;15.95;;;12.23;;
46815;SDS011;32787;53.316;8.670;2023-09-18T01:29:29;18.27;;;12.43;;
46815;SDS011;32787;53.316;8.670;2023-09-18T01:31:56;17.88;;;11.98;;
46815;SDS011;32787;53.316;8.670;2023-09-18T01:34:24;19.55;;;12.75;;
46815;SDS011;32787;53.316;8.670;2023-09-18T01:36:58;15.05;;;11.63;;
46815;SDS011;32787;53.316;8.670;2023-09-18T01:39:25;17.25;;;11.98;;
46815;SDS011;32787;53.316;8.670;2023-09-18T01:41:56;17.80;;;11.40;;
46815;SDS011;32787;53.316;8.670;2023-09-18T01:44:32;14.73;;;11.63;;
46815;SDS011;32787;53.316;8.670;2023-09-18T01:46:59;18.15;;;12.18;;
46815;SDS011;32787;53.316;8.670;2023-09-18T01:49:31;19.15;;;11.77;;
46815;SDS011;32787;53.316;8.670;2023-09-18T01:52:02;18.48;;;11.88;;
46815;SDS011;32787;53.316;8.670;2023-09-18T01:54:28;18.75;;;11.80;;
46815;SDS011;32787;53.316;8.670;2023-09-18T01:56:55;16.40;;;11.13;;
46815;SDS011;32787;53.316;8.670;2023-09-18T01:59:21;17.35;;;11.30;;
46815;SDS011;32787;53.316;8.670;2023-09-18T02:01:47;16.55;;;11.63;;
46815;SDS011;32787;53.316;8.670;2023-09-18T02:04:14;16.98;;;10.95;;
46815;SDS011;32787;53.316;8.670;2023-09-18T02:06:39;16.38;;;11.10;;
46815;SDS011;32787;53.316;8.670;2023-09-18T02:09:05;19.55;;;10.88;;
46815;SDS011;32787;53.316;8.670;2023-09-18T02:11:36;16.17;;;11.30;;
46815;SDS011;32787;53.316;8.670;2023-09-18T02:14:03;13.93;;;11.07;;
46815;SDS011;32787;53.316;8.670;2023-09-18T02:16:30;14.65;;;10.55;;
46815;SDS011;32787;53.316;8.670;2023-09-18T02:18:59;16.52;;;11.38;;
46815;SDS011;32787;53.316;8.670;2023-09-18T02:21:25;17.70;;;11.68;;
46815;SDS011;32787;53.316;8.670;2023-09-18T02:23:51;14.57;;;10.75;;
46815;SDS011;32787;53.316;8.670;2023-09-18T02:26:18;13.55;;;10.23;;
46815;SDS011;32787;53.316;8.670;2023-09-18T02:28:44;14.18;;;11.48;;
46815;SDS011;32787;53.316;8.670;2023-09-18T02:31:10;14.68;;;11.32;;
46815;SDS011;32787;53.316;8.670;2023-09-18T02:33:36;14.95;;;10.60;;
46815;SDS011;32787;53.316;8.670;2023-09-18T02:36:05;15.20;;;10.70;;
46815;SDS011;32787;53.316;8.670;2023-09-18T02:38:31;15.93;;;10.43;;
46815;SDS011;32787;53.316;8.670;2023-09-18T02:40:58;14.88;;;10.40;;
46815;SDS011;32787;53.316;8.670;2023-09-18T02:43:24;13.13;;;9.65;;
46815;SDS011;32787;53.316;8.670;2023-09-18T02:45:50;14.75;;;10.30;;
46815;SDS011;32787;53.316;8.670;2023-09-18T02:48:16;15.30;;;10.10;;
46815;SDS011;32787;53.316;8.670;2023-09-18T02:50:41;13.43;;;10.35;;
46815;SDS011;32787;53.316;8.670;2023-09-18T02:53:07;16.73;;;10.50;;
46815;SDS011;32787;53.316;8.670;2023-09-18T02:55:41;14.68;;;10.20;;
46815;SDS011;32787;53.316;8.670;2023-09-18T02:58:07;15.13;;;10.70;;
46815;SDS011;32787;53.316;8.670;2023-09-18T03:00:34;15.57;;;9.85;;
46815;SDS011;32787;53.316;8.670;2023-09-18T03:02:59;16.08;;;10.70;;
46815;SDS011;32787;53.316;8.670;2023-09-18T03:05:25;16.08;;;10.13;;
46815;SDS011;32787;53.316;8.670;2023-09-18T03:07:51;18.30;;;10.65;;
46815;SDS011;32787;53.316;8.670;2023-09-18T03:10:17;16.08;;;10.85;;
46815;SDS011;32787;53.316;8.670;2023-09-18T03:12:43;14.43;;;10.35;;
46815;SDS011;32787;53.316;8.670;2023-09-18T03:15:13;14.60;;;10.00;;
46815;SDS011;32787;53.316;8.670;2023-09-18T03:17:38;14.50;;;9.20;;
46815;SDS011;32787;53.316;8.670;2023-09-18T03:20:06;14.52;;;9.88;;
46815;SDS011;32787;53.316;8.670;2023-09-18T03:22:33;14.32;;;9.95;;
46815;SDS011;32787;53.316;8.670;2023-09-18T03:24:59;13.85;;;9.88;;
46815;SDS011;32787;53.316;8.670;2023-09-18T03:27:25;12.88;;;9.43;;
46815;SDS011;32787;53.316;8.670;2023-09-18T03:29:54;12.48;;;9.90;;
46815;SDS011;32787;53.316;8.670;2023-09-18T03:32:20;13.15;;;9.57;;
46815;SDS011;32787;53.316;8.670;2023-09-18T03:34:46;12.70;;;9.20;;
46815;SDS011;32787;53.316;8.670;2023-09-18T03:37:11;13.48;;;9.25;;
46815;SDS011;32787;53.316;8.670;2023-09-18T03:39:37;13.32;;;9.82;;
46815;SDS011;32787;53.316;8.670;2023-09-18T03:42:02;12.75;;;9.77;;
46815;SDS011;32787;53.316;8.670;2023-09-18T03:44:28;15.90;;;9.60;;
46815;SDS011;32787;53.316;8.670;2023-09-18T03:46:54;15.10;;;9.50;;
46815;SDS011;32787;53.316;8.670;2023-09-18T03:49:19;15.20;;;9.60;;
46815;SDS011;32787;53.316;8.670;2023-09-18T03:51:45;15.85;;;9.95;;
46815;SDS011;32787;53.316;8.670;2023-09-18T03:54:11;14.90;;;9.60;;
46815;SDS011;32787;53.316;8.670;2023-09-18T03:56:36;16.13;;;9.00;;
46815;SDS011;32787;53.316;8.670;2023-09-18T03:59:02;13.15;;;9.75;;
46815;SDS011;32787;53.316;8.670;2023-09-18T04:01:29;16.88;;;9.73;;
46815;SDS011;32787;53.316;8.670;2023-09-18T04:03:55;16.15;;;10.02;;
46815;SDS011;32787;53.316;8.670;2023-09-18T04:06:21;13.57;;;9.45;;
46815;SDS011;32787;53.316;8.670;2023-09-18T04:08:49;15.55;;;9.30;;
46815;SDS011;32787;53.316;8.670;2023-09-18T04:11:16;13.77;;;9.48;;
46815;SDS011;32787;53.316;8.670;2023-09-18T04:13:42;12.30;;;8.93;;
46815;SDS011;32787;53.316;8.670;2023-09-18T04:16:07;12.20;;;8.90;;
46815;SDS011;32787;53.316;8.670;2023-09-18T04:18:33;14.18;;;8.82;;
46815;SDS011;32787;53.316;8.670;2023-09-18T04:20:59;12.50;;;8.82;;
46815;SDS011;32787;53.316;8.670;2023-09-18T04:23:25;14.38;;;8.98;;
46815;SDS011;32787;53.316;8.670;2023-09-18T04:25:52;15.02;;;9.65;;
46815;SDS011;32787;53.316;8.670;2023-09-18T04:28:19;12.88;;;8.50;;
46815;SDS011;32787;53.316;8.670;2023-09-18T04:30:46;13.65;;;9.02;;
46815;SDS011;32787;53.316;8.670;2023-09-18T04:33:15;10.90;;;7.78;;
46815;SDS011;32787;53.316;8.670;2023-09-18T04:35:41;13.27;;;8.98;;
46815;SDS011;32787;53.316;8.670;2023-09-18T04:38:07;19.05;;;8.75;;
46815;SDS011;32787;53.316;8.670;2023-09-18T04:40:34;11.63;;;8.45;;
46815;SDS011;32787;53.316;8.670;2023-09-18T04:43:00;11.25;;;8.18;;
46815;SDS011;32787;53.316;8.670;2023-09-18T04:45:26;12.35;;;8.15;;
46815;SDS011;32787;53.316;8.670;2023-09-18T04:47:52;11.48;;;8.30;;
46815;SDS011;32787;53.316;8.670;2023-09-18T04:50:19;12.98;;;8.20;;
46815;SDS011;32787;53.316;8.670;2023-09-18T04:52:44;14.45;;;8.60;;
46815;SDS011;32787;53.316;8.670;2023-09-18T04:55:10;12.43;;;7.97;;
46815;SDS011;32787;53.316;8.670;2023-09-18T04:57:36;12.23;;;8.10;;
46815;SDS011;32787;53.316;8.670;2023-09-18T05:00:03;14.07;;;8.95;;
46815;SDS011;32787;53.316;8.670;2023-09-18T05:02:33;15.05;;;8.98;;
46815;SDS011;32787;53.316;8.670;2023-09-18T05:04:59;13.70;;;8.70;;
46815;SDS011;32787;53.316;8.670;2023-09-18T05:07:25;14.75;;;8.20;;
46815;SDS011;32787;53.316;8.670;2023-09-18T05:09:51;15.32;;;8.50;;
46815;SDS011;32787;53.316;8.670;2023-09-18T05:12:17;12.88;;;7.40;;
46815;SDS011;32787;53.316;8.670;2023-09-18T05:14:43;12.32;;;7.75;;
46815;SDS011;32787;53.316;8.670;2023-09-18T05:17:14;14.18;;;8.25;;
46815;SDS011;32787;53.316;8.670;2023-09-18T05:19:41;12.02;;;8.02;;
46815;SDS011;32787;53.316;8.670;2023-09-18T05:22:10;10.48;;;7.30;;
46815;SDS011;32787;53.316;8.670;2023-09-18T05:24:39;11.43;;;7.55;;
46815;SDS011;32787;53.316;8.670;2023-09-18T05:27:05;13.27;;;7.78;;
46815;SDS011;32787;53.316;8.670;2023-09-18T05:29:34;11.18;;;7.40;;
46815;SDS011;32787;53.316;8.670;2023-09-18T05:32:01;10.57;;;7.35;;
46815;SDS011;32787;53.316;8.670;2023-09-18T05:34:27;10.88;;;7.43;;
46815;SDS011;32787;53.316;8.670;2023-09-18T05:36:52;10.48;;;6.88;;
46815;SDS011;32787;53.316;8.670;2023-09-18T05:39:18;12.10;;;7.55;;
46815;SDS011;32787;53.316;8.670;2023-09-18T05:41:44;12.02;;;7.88;;
46815;SDS011;32787;53.316;8.670;2023-09-18T05:44:10;11.68;;;7.43;;
46815;SDS011;32787;53.316;8.670;2023-09-18T05:46:35;11.57;;;7.88;;
46815;SDS011;32787;53.316;8.670;2023-09-18T05:49:04;13.55;;;7.15;;
46815;SDS011;32787;53.316;8.670;2023-09-18T05:51:30;12.60;;;6.85;;
46815;SDS011;32787;53.316;8.670;2023-09-18T05:53:57;14.02;;;7.32;;
46815;SDS011;32787;53.316;8.670;2023-09-18T05:56:23;10.45;;;6.57;;
46815;SDS011;32787;53.316;8.670;2023-09-18T05:58:49;12.43;;;7.30;;
46815;SDS011;32787;53.316;8.670;2023-09-18T06:01:14;12.30;;;7.38;;
46815;SDS011;32787;53.316;8.670;2023-09-18T06:03:40;12.38;;;7.22;;
46815;SDS011;32787;53.316;8.670;2023-09-18T06:06:06;11.10;;;7.20;;
46815;SDS011;32787;53.316;8.670;2023-09-18T06:08:32;12.93;;;7.05;;
46815;SDS011;32787;53.316;8.670;2023-09-18T06:10:58;13.50;;;7.15;;
46815;SDS011;32787;53.316;8.670;2023-09-18T06:13:24;12.50;;;7.00;;
46815;SDS011;32787;53.316;8.670;2023-09-18T06:15:53;10.60;;;7.03;;
46815;SDS011;32787;53.316;8.670;2023-09-18T06:18:22;12.38;;;6.78;;
46815;SDS011;32787;53.316;8.670;2023-09-18T06:20:48;12.73;;;6.78;;
46815;SDS011;32787;53.316;8.670;2023-09-18T06:23:14;12.52;;;7.03;;
46815;SDS011;32787;53.316;8.670;2023-09-18T06:25:40;10.80;;;6.95;;
46815;SDS011;32787;53.316;8.670;2023-09-18T06:28:06;11.70;;;6.43;;
46815;SDS011;32787;53.316;8.670;2023-09-18T06:30:32;11.85;;;6.65;;
46815;SDS011;32787;53.316;8.670;2023-09-18T06:32:59;9.43;;;6.63;;
46815;SDS011;32787;53.316;8.670;2023-09-18T06:35:25;10.65;;;6.15;;
46815;SDS011;32787;53.316;8.670;2023-09-18T06:37:51;13.95;;;6.82;;
46815;SDS011;32787;53.316;8.670;2023-09-18T06:40:17;13.70;;;6.60;;
46815;SDS011;32787;53.316;8.670;2023-09-18T06:42:44;11.00;;;7.00;;
46815;SDS011;32787;53.316;8.670;2023-09-18T06:45:09;9.52;;;6.47;;
46815;SDS011;32787;53.316;8.670;2023-09-18T06:47:35;9.95;;;5.93;;
46815;SDS011;32787;53.316;8.670;2023-09-18T06:50:00;11.00;;;6.20;;
46815;SDS011;32787;53.316;8.670;2023-09-18T06:52:26;11.50;;;5.85;;
46815;SDS011;32787;53.316;8.670;2023-09-18T06:54:53;13.93;;;6.10;;
46815;SDS011;32787;53.316;8.670;2023-09-18T06:57:18;10.35;;;6.00;;
46815;SDS011;32787;53.316;8.670;2023-09-18T06:59:46;9.75;;;5.85;;
46815;SDS011;32787;53.316;8.670;2023-09-18T07:02:12;12.45;;;6.30;;
46815;SDS011;32787;53.316;8.670;2023-09-18T07:04:39;12.27;;;5.75;;
46815;SDS011;32787;53.316;8.670;2023-09-18T07:07:09;11.00;;;5.95;;
46815;SDS011;32787;53.316;8.670;2023-09-18T07:09:39;11.60;;;6.30;;
46815;SDS011;32787;53.316;8.670;2023-09-18T07:12:06;9.55;;;6.20;;
46815;SDS011;32787;53.316;8.670;2023-09-18T07:14:33;9.38;;;6.38;;
46815;SDS011;32787;53.316;8.670;2023-09-18T07:16:59;10.05;;;6.25;;
46815;SDS011;32787;53.316;8.670;2023-09-18T07:19:26;9.95;;;5.55;;
46815;SDS011;32787;53.316;8.670;2023-09-18T07:21:51;10.05;;;6.03;;
46815;SDS011;32787;53.316;8.670;2023-09-18T07:24:17;9.10;;;5.60;;
46815;SDS011;32787;53.316;8.670;2023-09-18T07:26:46;10.02;;;6.00;;
46815;SDS011;32787;53.316;8.670;2023-09-18T07:29:14;10.65;;;5.78;;
46815;SDS011;32787;53.316;8.670;2023-09-18T07:31:43;12.30;;;5.63;;
46815;SDS011;32787;53.316;8.670;2023-09-18T07:34:09;10.00;;;5.93;;
46815;SDS011;32787;53.316;8.670;2023-09-18T07:36:35;8.88;;;5.75;;
46815;SDS011;32787;53.316;8.670;2023-09-18T07:39:02;9.32;;;5.80;;
46815;SDS011;32787;53.316;8.670;2023-09-18T07:41:29;11.18;;;5.55;;
46815;SDS011;32787;53.316;8.670;2023-09-18T07:43:56;9.73;;;6.00;;
46815;SDS011;32787;53.316;8.670;2023-09-18T07:46:23;11.27;;;6.13;;
46815;SDS011;32787;53.316;8.670;2023-09-18T07:48:49;10.27;;;5.32;;
46815;SDS011;32787;53.316;8.670;2023-09-18T07:51:14;10.35;;;5.72;;
46815;SDS011;32787;53.316;8.670;2023-09-18T07:53:41;8.60;;;5.43;;
46815;SDS011;32787;53.316;8.670;2023-09-18T07:56:07;9.10;;;5.63;;
46815;SDS011;32787;53.316;8.670;2023-09-18T07:58:33;12.10;;;5.80;;
46815;SDS011;32787;53.316;8.670;2023-09-18T08:01:06;10.48;;;5.97;;
46815;SDS011;32787;53.316;8.670;2023-09-18T08:03:34;9.38;;;5.93;;
46815;SDS011;32787;53.316;8.670;2023-09-18T08:06:00;9.65;;;5.75;;
46815;SDS011;32787;53.316;8.670;2023-09-18T08:08:26;9.40;;;5.63;;
46815;SDS011;32787;53.316;8.670;2023-09-18T08:10:52;8.50;;;5.65;;
46815;SDS011;32787;53.316;8.670;2023-09-18T08:13:18;10.20;;;5.90;;
46815;SDS011;32787;53.316;8.670;2023-09-18T08:15:49;10.00;;;5.95;;
46815;SDS011;32787;53.316;8.670;2023-09-18T08:18:15;7.97;;;5.32;;
46815;SDS011;32787;53.316;8.670;2023-09-18T08:20:44;10.48;;;6.20;;
46815;SDS011;32787;53.316;8.670;2023-09-18T08:23:10;10.87;;;6.27;;
46815;SDS011;32787;53.316;8.670;2023-09-18T08:25:36;11.13;;;5.70;;
46815;SDS011;32787;53.316;8.670;2023-09-18T08:28:02;13.73;;;6.30;;
46815;SDS011;32787;53.316;8.670;2023-09-18T08:30:29;9.10;;;5.93;;
46815;SDS011;32787;53.316;8.670;2023-09-18T08:32:55;13.38;;;5.75;;
46815;SDS011;32787;53.316;8.670;2023-09-18T08:35:21;10.40;;;5.85;;
46815;SDS011;32787;53.316;8.670;2023-09-18T08:37:47;11.05;;;5.90;;
46815;SDS011;32787;53.316;8.670;2023-09-18T08:40:13;10.90;;;5.97;;
46815;SDS011;32787;53.316;8.670;2023-09-18T08:42:43;11.45;;;5.57;;
46815;SDS011;32787;53.316;8.670;2023-09-18T08:45:11;9.80;;;5.97;;
46815;SDS011;32787;53.316;8.670;2023-09-18T08:47:44;9.68;;;5.72;;
46815;SDS011;32787;53.316;8.670;2023-09-18T08:50:11;10.27;;;5.70;;
46815;SDS011;32787;53.316;8.670;2023-09-18T08:52:37;10.90;;;5.63;;
46815;SDS011;32787;53.316;8.670;2023-09-18T08:55:04;11.45;;;5.95;;
46815;SDS011;32787;53.316;8.670;2023-09-18T08:57:31;9.18;;;5.72;;
46815;SDS011;32787;53.316;8.670;2023-09-18T08:59:58;15.20;;;6.07;;
46815;SDS011;32787;53.316;8.670;2023-09-18T09:02:29;9.88;;;5.43;;
46815;SDS011;32787;53.316;8.670;2023-09-18T09:04:54;13.50;;;5.65;;
46815;SDS011;32787;53.316;8.670;2023-09-18T09:07:20;10.07;;;4.90;;
46815;SDS011;32787;53.316;8.670;2023-09-18T09:09:45;10.07;;;5.32;;
46815;SDS011;32787;53.316;8.670;2023-09-18T09:12:12;11.48;;;5.45;;
46815;SDS011;32787;53.316;8.670;2023-09-18T09:14:37;13.25;;;5.82;;
46815;SDS011;32787;53.316;8.670;2023-09-18T09:17:03;10.85;;;5.30;;
46815;SDS011;32787;53.316;8.670;2023-09-18T09:19:30;10.93;;;4.47;;
46815;SDS011;32787;53.316;8.670;2023-09-18T09:21:57;11.50;;;4.82;;
46815;SDS011;32787;53.316;8.670;2023-09-18T09:24:40;9.93;;;5.72;;
46815;SDS011;32787;53.316;8.670;2023-09-18T09:27:07;11.35;;;4.93;;
46815;SDS011;32787;53.316;8.670;2023-09-18T09:29:37;14.20;;;4.82;;
46815;SDS011;32787;53.316;8.670;2023-09-18T09:32:21;11.57;;;5.10;;
46815;SDS011;32787;53.316;8.670;2023-09-18T09:34:47;11.23;;;4.70;;
46815;SDS011;32787;53.316;8.670;2023-09-18T09:37:13;12.57;;;4.88;;
46815;SDS011;32787;53.316;8.670;2023-09-18T09:42:15;10.25;;;4.75;;
46815;SDS011;32787;53.316;8.670;2023-09-18T09:44:47;11.60;;;4.72;;
46815;SDS011;32787;53.316;8.670;2023-09-18T09:47:13;9.10;;;4.88;;
46815;SDS011;32787;53.316;8.670;2023-09-18T09:49:47;9.32;;;4.22;;
46815;SDS011;32787;53.316;8.670;2023-09-18T09:52:19;11.20;;;4.80;;
46815;SDS011;32787;53.316;8.670;2023-09-18T09:54:47;10.63;;;4.95;;
46815;SDS011;32787;53.316;8.670;2023-09-18T09:57:13;11.10;;;4.78;;
46815;SDS011;32787;53.316;8.670;2023-09-18T09:59:39;10.07;;;4.13;;
46815;SDS011;32787;53.316;8.670;2023-09-18T10:02:10;10.15;;;4.78;;
46815;SDS011;32787;53.316;8.670;2023-09-18T10:04:39;10.00;;;3.85;;
46815;SDS011;32787;53.316;8.670;2023-09-18T10:07:06;12.15;;;4.10;;
46815;SDS011;32787;53.316;8.670;2023-09-18T10:09:34;12.90;;;4.22;;
46815;SDS011;32787;53.316;8.670;2023-09-18T10:12:03;10.93;;;5.10;;
46815;SDS011;32787;53.316;8.670;2023-09-18T10:14:34;11.00;;;4.35;;
46815;SDS011;32787;53.316;8.670;2023-09-18T10:17:04;11.50;;;4.65;;
46815;SDS011;32787;53.316;8.670;2023-09-18T10:22:42;12.18;;;4.63;;
46815;SDS011;32787;53.316;8.670;2023-09-18T10:25:14;9.85;;;4.00;;
46815;SDS011;32787;53.316;8.670;2023-09-18T10:27:45;12.48;;;4.57;;
46815;SDS011;32787;53.316;8.670;2023-09-18T10:30:14;12.30;;;4.35;;
46815;SDS011;32787;53.316;8.670;2023-09-18T10:32:43;10.10;;;3.97;;
46815;SDS011;32787;53.316;8.670;2023-09-18T10:35:13;11.30;;;4.63;;
46815;SDS011;32787;53.316;8.670;2023-09-18T10:37:39;12.30;;;4.65;;
46815;SDS011;32787;53.316;8.670;2023-09-18T10:40:08;14.38;;;4.47;;
46815;SDS011;32787;53.316;8.670;2023-09-18T10:42:38;9.73;;;4.20;;
46815;SDS011;32787;53.316;8.670;2023-09-18T10:45:08;11.32;;;4.28;;
46815;SDS011;32787;53.316;8.670;2023-09-18T10:47:41;12.85;;;4.60;;
46815;SDS011;32787;53.316;8.670;2023-09-18T10:50:10;12.27;;;4.20;;
46815;SDS011;32787;53.316;8.670;2023-09-18T10:52:38;13.98;;;4.53;;
46815;SDS011;32787;53.316;8.670;2023-09-18T10:55:10;9.75;;;4.32;;
46815;SDS011;32787;53.316;8.670;2023-09-18T10:57:37;12.68;;;5.00;;
46815;SDS011;32787;53.316;8.670;2023-09-18T11:00:04;10.70;;;4.07;;
46815;SDS011;32787;53.316;8.670;2023-09-18T11:02:39;11.70;;;4.78;;
46815;SDS011;32787;53.316;8.670;2023-09-18T11:05:05;9.60;;;4.43;;
46815;SDS011;32787;53.316;8.670;2023-09-18T11:07:32;10.60;;;4.60;;
46815;SDS011;32787;53.316;8.670;2023-09-18T11:09:57;10.15;;;4.00;;
46815;SDS011;32787;53.316;8.670;2023-09-18T11:12:41;11.88;;;4.32;;
46815;SDS011;32787;53.316;8.670;2023-09-18T11:15:09;10.95;;;4.35;;
46815;SDS011;32787;53.316;8.670;2023-09-18T11:17:58;9.35;;;3.95;;
46815;SDS011;32787;53.316;8.670;2023-09-18T11:20:25;9.68;;;4.28;;
46815;SDS011;32787;53.316;8.670;2023-09-18T11:27:59;12.90;;;4.25;;
46815;SDS011;32787;53.316;8.670;2023-09-18T11:30:27;8.95;;;3.80;;
46815;SDS011;32787;53.316;8.670;2023-09-18T11:32:53;12.15;;;3.97;;
46815;SDS011;32787;53.316;8.670;2023-09-18T11:35:20;9.90;;;4.10;;
46815;SDS011;32787;53.316;8.670;2023-09-18T11:37:46;9.35;;;3.97;;
46815;SDS011;32787;53.316;8.670;2023-09-18T11:40:31;9.48;;;3.80;;
46815;SDS011;32787;53.316;8.670;2023-09-18T11:46:00;11.32;;;4.40;;
46815;SDS011;32787;53.316;8.670;2023-09-18T11:48:29;11.47;;;4.20;;
46815;SDS011;32787;53.316;8.670;2023-09-18T11:51:01;9.40;;;4.15;;
46815;SDS011;32787;53.316;8.670;2023-09-18T11:53:32;9.80;;;3.67;;
46815;SDS011;32787;53.316;8.670;2023-09-18T11:56:02;9.82;;;3.92;;
46815;SDS011;32787;53.316;8.670;2023-09-18T11:58:28;10.73;;;4.18;;
46815;SDS011;32787;53.316;8.670;2023-09-18T12:00:54;9.43;;;4.10;;
46815;SDS011;32787;53.316;8.670;2023-09-18T12:03:23;10.73;;;4.18;;
46815;SDS011;32787;53.316;8.670;2023-09-18T12:05:52;12.32;;;4.30;;
46815;SDS011;32787;53.316;8.670;2023-09-18T12:08:21;10.63;;;4.22;;
46815;SDS011;32787;53.316;8.670;2023-09-18T12:10:48;8.68;;;4.13;;
46815;SDS011;32787;53.316;8.670;2023-09-18T12:13:15;10.93;;;3.60;;
46815;SDS011;32787;53.316;8.670;2023-09-18T12:15:40;7.50;;;3.40;;
46815;SDS011;32787;53.316;8.670;2023-09-18T12:18:07;10.43;;;3.70;;
46815;SDS011;32787;53.316;8.670;2023-09-18T12:20:36;9.55;;;3.40;;
46815;SDS011;32787;53.316;8.670;2023-09-18T12:23:02;10.63;;;3.10;;
46815;SDS011;32787;53.316;8.670;2023-09-18T12:25:28;8.55;;;3.80;;
46815;SDS011;32787;53.316;8.670;2023-09-18T12:27:54;5.95;;;2.92;;
46815;SDS011;32787;53.316;8.670;2023-09-18T12:30:21;5.88;;;2.83;;
46815;SDS011;32787;53.316;8.670;2023-09-18T12:32:48;12.30;;;2.85;;
46815;SDS011;32787;53.316;8.670;2023-09-18T12:35:14;8.38;;;2.90;;
46815;SDS011;32787;53.316;8.670;2023-09-18T12:37:40;6.72;;;2.85;;
46815;SDS011;32787;53.316;8.670;2023-09-18T12:40:28;5.57;;;2.70;;
46815;SDS011;32787;53.316;8.670;2023-09-18T12:42:54;9.35;;;3.10;;
46815;SDS011;32787;53.316;8.670;2023-09-18T12:45:21;6.57;;;2.40;;
46815;SDS011;32787;53.316;8.670;2023-09-18T12:47:48;7.88;;;2.45;;
46815;SDS011;32787;53.316;8.670;2023-09-18T12:50:15;5.30;;;2.10;;
46815;SDS011;32787;53.316;8.670;2023-09-18T12:52:40;5.85;;;2.15;;
46815;SDS011;32787;53.316;8.670;2023-09-18T12:55:06;6.75;;;1.90;;
46815;SDS011;32787;53.316;8.670;2023-09-18T12:57:33;5.95;;;2.17;;
46815;SDS011;32787;53.316;8.670;2023-09-18T12:59:58;5.95;;;2.30;;
46815;SDS011;32787;53.316;8.670;2023-09-18T13:02:24;6.05;;;2.33;;
46815;SDS011;32787;53.316;8.670;2023-09-18T13:04:54;5.95;;;2.40;;
46815;SDS011;32787;53.316;8.670;2023-09-18T13:07:21;9.50;;;2.47;;
46815;SDS011;32787;53.316;8.670;2023-09-18T13:10:02;5.45;;;2.20;;
46815;SDS011;32787;53.316;8.670;2023-09-18T13:15:50;9.05;;;2.05;;
46815;SDS011;32787;53.316;8.670;2023-09-18T13:18:12;4.25;;;1.75;;
46815;SDS011;32787;53.316;8.670;2023-09-18T13:20:39;5.35;;;1.98;;
46815;SDS011;32787;53.316;8.670;2023-09-18T13:23:05;5.10;;;1.90;;
46815;SDS011;32787;53.316;8.670;2023-09-18T13:25:33;6.25;;;2.05;;
46815;SDS011;32787;53.316;8.670;2023-09-18T13:28:01;4.65;;;2.00;;
46815;SDS011;32787;53.316;8.670;2023-09-18T13:30:28;5.32;;;1.80;;
46815;SDS011;32787;53.316;8.670;2023-09-18T13:33:12;5.25;;;1.70;;
46815;SDS011;32787;53.316;8.670;2023-09-18T13:35:41;6.57;;;1.83;;
46815;SDS011;32787;53.316;8.670;2023-09-18T13:38:08;5.82;;;1.92;;
46815;SDS011;32787;53.316;8.670;2023-09-18T13:40:36;4.97;;;1.55;;
46815;SDS011;32787;53.316;8.670;2023-09-18T13:43:02;4.60;;;1.90;;
46815;SDS011;32787;53.316;8.670;2023-09-18T13:45:29;6.45;;;1.95;;
46815;SDS011;32787;53.316;8.670;2023-09-18T13:47:58;5.82;;;1.80;;
46815;SDS011;32787;53.316;8.670;2023-09-18T13:50:24;4.07;;;1.55;;
46815;SDS011;32787;53.316;8.670;2023-09-18T13:52:50;6.32;;;1.88;;
46815;SDS011;32787;53.316;8.670;2023-09-18T13:55:16;4.78;;;1.73;;
46815;SDS011;32787;53.316;8.670;2023-09-18T13:57:42;4.30;;;1.55;;
46815;SDS011;32787;53.316;8.670;2023-09-18T14:00:07;4.65;;;1.60;;
46815;SDS011;32787;53.316;8.670;2023-09-18T14:02:35;4.10;;;1.60;;
46815;SDS011;32787;53.316;8.670;2023-09-18T14:05:01;4.97;;;1.38;;
46815;SDS011;32787;53.316;8.670;2023-09-18T14:07:28;5.63;;;1.65;;
46815;SDS011;32787;53.316;8.670;2023-09-18T14:09:54;5.38;;;1.80;;
46815;SDS011;32787;53.316;8.670;2023-09-18T14:12:20;5.88;;;1.60;;
46815;SDS011;32787;53.316;8.670;2023-09-18T14:14:45;6.18;;;1.95;;
46815;SDS011;32787;53.316;8.670;2023-09-18T14:17:11;3.80;;;1.48;;
46815;SDS011;32787;53.316;8.670;2023-09-18T14:19:38;4.35;;;2.08;;
46815;SDS011;32787;53.316;8.670;2023-09-18T14:22:04;4.10;;;1.70;;
46815;SDS011;32787;53.316;8.670;2023-09-18T14:24:31;3.92;;;1.63;;
46815;SDS011;32787;53.316;8.670;2023-09-18T14:26:59;5.13;;;1.52;;
46815;SDS011;32787;53.316;8.670;2023-09-18T14:29:25;3.90;;;1.30;;
46815;SDS011;32787;53.316;8.670;2023-09-18T14:31:51;7.15;;;1.52;;
46815;SDS011;32787;53.316;8.670;2023-09-18T14:34:17;5.22;;;1.48;;
46815;SDS011;32787;53.316;8.670;2023-09-18T14:36:42;4.93;;;1.50;;
46815;SDS011;32787;53.316;8.670;2023-09-18T14:39:09;4.30;;;1.63;;
46815;SDS011;32787;53.316;8.670;2023-09-18T14:41:36;7.97;;;1.92;;
46815;SDS011;32787;53.316;8.670;2023-09-18T14:44:06;4.72;;;1.65;;
46815;SDS011;32787;53.316;8.670;2023-09-18T14:46:34;4.20;;;1.65;;
46815;SDS011;32787;53.316;8.670;2023-09-18T14:49:02;8.10;;;1.90;;
46815;SDS011;32787;53.316;8.670;2023-09-18T14:51:28;6.88;;;2.17;;
46815;SDS011;32787;53.316;8.670;2023-09-18T14:53:55;6.22;;;2.00;;
46815;SDS011;32787;53.316;8.670;2023-09-18T14:56:21;5.07;;;2.15;;
46815;SDS011;32787;53.316;8.670;2023-09-18T14:58:46;5.07;;;2.05;;
46815;SDS011;32787;53.316;8.670;2023-09-18T15:01:12;5.60;;;2.10;;